Time,TemperatureF,DewpointF,PressureIn,WindDirection,WindDirectionDegrees,WindSpeedMPH,WindSpeedGustMPH,Humidity,HourlyPrecipIn,Conditions,Clouds,dailyrainin,SoftwareType,DateUTC
2013-07-05 00:02:00,70.4,67.6,30.07,WSW,253,0.0,0.0,91,0.00,,,0.00,Wunderground v.1.15,2013-07-05 04:02:00,
2013-07-05 00:07:00,70.4,67.6,30.07,WSW,253,0.0,0.0,91,0.00,,,0.00,Wunderground v.1.15,2013-07-05 04:07:00,
2013-07-05 00:17:00,70.2,67.4,30.07,WSW,254,0.0,0.0,91,0.00,,,0.00,Wunderground v.1.15,2013-07-05 04:17:00,
2013-07-05 00:22:00,70.1,67.3,30.07,WSW,254,0.0,0.0,91,0.00,,,0.00,Wunderground v.1.15,2013-07-05 04:22:00,
2013-07-05 00:32:00,70.1,67.7,30.07,WSW,254,0.0,0.0,92,0.00,,,0.00,Wunderground v.1.15,2013-07-05 04:32:00,
2013-07-05 00:37:00,70.2,67.8,30.07,WSW,253,0.0,0.0,92,0.00,,,0.00,Wunderground v.1.15,2013-07-05 04:37:00,
2013-07-05 00:47:00,70.3,67.9,30.07,WSW,253,0.0,0.0,92,0.00,,,0.00,Wunderground v.1.15,2013-07-05 04:47:00,
2013-07-05 00:52:00,70.3,67.9,30.06,WSW,254,0.0,0.0,92,0.00,,,0.00,Wunderground v.1.15,2013-07-05 04:52:00,
2013-07-05 00:57:00,70.3,67.9,30.06,WSW,253,0.0,0.0,92,0.00,,,0.00,Wunderground v.1.15,2013-07-05 04:57:00,
2013-07-05 01:07:00,70.4,68.0,30.06,WSW,252,0.0,0.0,92,0.00,,,0.00,Wunderground v.1.15,2013-07-05 05:07:00,
2013-07-05 01:12:00,70.4,68.0,30.06,SSE,162,0.0,0.0,92,0.00,,,0.00,Wunderground v.1.15,2013-07-05 05:12:00,
2013-07-05 01:22:00,70.4,68.0,30.06,SSE,162,0.0,0.0,92,0.00,,,0.00,Wunderground v.1.15,2013-07-05 05:22:00,
2013-07-05 01:27:00,70.5,68.1,30.06,SSE,162,0.0,0.0,92,0.00,,,0.00,Wunderground v.1.15,2013-07-05 05:27:00,
2013-07-05 01:37:00,70.6,68.2,30.05,SSE,161,0.0,0.0,92,0.00,,,0.00,Wunderground v.1.15,2013-07-05 05:37:00,
2013-07-05 01:42:00,70.6,68.2,30.05,SSE,161,0.0,0.0,92,0.00,,,0.00,Wunderground v.1.15,2013-07-05 05:42:00,
2013-07-05 01:47:00,70.6,67.8,30.05,SSE,162,0.0,0.0,91,0.00,,,0.00,Wunderground v.1.15,2013-07-05 05:47:00,
2013-07-05 01:52:00,70.6,67.8,30.05,SSE,162,0.0,0.0,91,0.00,,,0.00,Wunderground v.1.15,2013-07-05 05:52:00,
2013-07-05 01:57:00,70.6,67.8,30.04,SSE,162,0.0,0.0,91,0.00,,,0.00,Wunderground v.1.15,2013-07-05 05:57:00,
2013-07-05 02:07:00,70.6,67.8,30.04,SSE,161,0.0,0.0,91,0.00,,,0.00,Wunderground v.1.15,2013-07-05 06:07:00,
2013-07-05 02:17:00,70.6,67.8,30.04,SSE,161,0.0,0.0,91,0.00,,,0.00,Wunderground v.1.15,2013-07-05 06:17:00,
2013-07-05 02:27:00,70.5,67.7,30.04,SSE,150,1.0,2.0,91,0.00,,,0.00,Wunderground v.1.15,2013-07-05 06:27:00,
2013-07-05 02:32:00,70.5,67.7,30.04,SSE,151,1.0,2.0,91,0.00,,,0.00,Wunderground v.1.15,2013-07-05 06:32:00,
2013-07-05 02:42:00,70.5,67.7,30.04,SSE,151,1.0,1.0,91,0.00,,,0.00,Wunderground v.1.15,2013-07-05 06:42:00,
2013-07-05 02:52:00,70.5,67.7,30.04,SSE,151,1.0,1.0,91,0.00,,,0.00,Wunderground v.1.15,2013-07-05 06:52:00,
2013-07-05 02:57:00,70.5,67.7,30.04,SSE,151,1.0,1.0,91,0.00,,,0.00,Wunderground v.1.15,2013-07-05 06:57:00,
2013-07-05 03:07:00,70.5,67.7,30.03,SSE,151,0.0,0.0,91,0.00,,,0.00,Wunderground v.1.15,2013-07-05 07:07:00,
2013-07-05 03:12:00,70.4,67.6,30.03,SSE,151,1.0,1.0,91,0.00,,,0.00,Wunderground v.1.15,2013-07-05 07:12:00,
2013-07-05 03:22:00,70.4,67.6,30.03,SSE,151,0.0,1.0,91,0.00,,,0.00,Wunderground v.1.15,2013-07-05 07:22:00,
2013-07-05 03:32:00,70.3,67.5,30.03,SSE,151,0.0,1.0,91,0.00,,,0.00,Wunderground v.1.15,2013-07-05 07:32:00,
2013-07-05 03:42:00,70.3,67.9,30.03,SSE,151,0.0,1.0,92,0.00,,,0.00,Wunderground v.1.15,2013-07-05 07:42:00,
2013-07-05 03:47:00,70.3,67.9,30.03,SSE,151,1.0,1.0,92,0.00,,,0.00,Wunderground v.1.15,2013-07-05 07:47:00,
2013-07-05 03:57:00,70.1,67.7,30.03,SSE,151,0.0,0.0,92,0.00,,,0.00,Wunderground v.1.15,2013-07-05 07:57:00,
2013-07-05 04:07:00,70.0,67.6,30.03,SSE,151,0.0,0.0,92,0.00,,,0.00,Wunderground v.1.15,2013-07-05 08:07:00,
2013-07-05 04:17:00,69.8,67.4,30.03,SSE,151,0.0,0.0,92,0.00,,,0.00,Wunderground v.1.15,2013-07-05 08:17:00,
2013-07-05 04:27:00,69.8,67.4,30.03,SSE,151,0.0,0.0,92,0.00,,,0.00,Wunderground v.1.15,2013-07-05 08:27:00,
2013-07-05 04:37:00,69.7,67.3,30.03,SSE,151,0.0,0.0,92,0.00,,,0.00,Wunderground v.1.15,2013-07-05 08:37:00,
2013-07-05 04:42:00,69.7,67.3,30.03,SSE,151,0.0,0.0,92,0.00,,,0.01,Wunderground v.1.15,2013-07-05 08:42:00,
2013-07-05 04:52:00,69.6,67.2,30.03,SSE,151,0.0,1.0,92,0.00,,,0.01,Wunderground v.1.15,2013-07-05 08:52:00,
2013-07-05 04:57:00,69.6,67.2,30.03,SSE,151,0.0,0.0,92,0.00,,,0.01,Wunderground v.1.15,2013-07-05 08:57:00,
2013-07-05 05:07:00,69.5,67.1,30.03,SSE,162,2.0,2.0,92,0.00,,,0.01,Wunderground v.1.15,2013-07-05 09:07:00,
2013-07-05 05:12:00,69.6,67.2,30.03,SSE,156,2.0,3.0,92,0.00,,,0.01,Wunderground v.1.15,2013-07-05 09:12:00,
2013-07-05 05:17:00,69.5,67.1,30.03,SE,146,2.0,3.0,92,0.00,,,0.01,Wunderground v.1.15,2013-07-05 09:17:00,
2013-07-05 05:27:00,69.4,67.0,30.03,SE,137,2.0,2.0,92,0.00,,,0.01,Wunderground v.1.15,2013-07-05 09:27:00,
2013-07-05 05:37:00,69.3,66.9,30.03,SSE,148,2.0,2.0,92,0.00,,,0.01,Wunderground v.1.15,2013-07-05 09:37:00,
2013-07-05 05:47:00,69.2,67.1,30.03,SSE,153,2.0,2.0,93,0.00,,,0.01,Wunderground v.1.15,2013-07-05 09:47:00,
2013-07-05 05:58:00,69.0,66.6,30.04,South,184,2.0,3.0,92,0.00,,,0.01,Wunderground v.1.15,2013-07-05 09:58:00,
2013-07-05 06:07:00,69.0,66.9,30.04,South,190,2.0,3.0,93,0.00,,,0.02,Wunderground v.1.15,2013-07-05 10:07:00,
2013-07-05 06:12:00,69.0,66.9,30.04,South,191,2.0,3.0,93,0.00,,,0.02,Wunderground v.1.15,2013-07-05 10:12:00,
2013-07-05 06:17:00,69.0,66.9,30.04,South,188,2.0,2.0,93,0.00,,,0.02,Wunderground v.1.15,2013-07-05 10:17:00,
2013-07-05 06:27:00,68.9,66.8,30.04,South,188,1.0,1.0,93,0.00,,,0.02,Wunderground v.1.15,2013-07-05 10:27:00,
2013-07-05 06:32:00,68.8,66.7,30.04,South,189,1.0,1.0,93,0.00,,,0.03,Wunderground v.1.15,2013-07-05 10:32:00,
2013-07-05 06:42:00,68.8,66.7,30.04,WSW,248,2.0,2.0,93,0.11,,,0.05,Wunderground v.1.15,2013-07-05 10:42:00,
2013-07-05 06:52:00,68.8,66.7,30.04,WSW,248,0.0,1.0,93,0.23,,,0.08,Wunderground v.1.15,2013-07-05 10:52:00,
2013-07-05 06:57:00,68.8,66.7,30.04,WSW,247,0.0,0.0,93,0.13,,,0.09,Wunderground v.1.15,2013-07-05 10:57:00,
2013-07-05 07:07:00,68.8,66.7,30.04,West,264,1.0,1.0,93,0.08,,,0.10,Wunderground v.1.15,2013-07-05 11:07:00,
2013-07-05 07:13:00,68.8,66.7,30.04,North,10,1.0,3.0,93,0.05,,,0.10,Wunderground v.1.15,2013-07-05 11:13:00,
2013-07-05 07:22:00,68.6,66.5,30.04,NNE,23,2.0,2.0,93,0.00,,,0.10,Wunderground v.1.15,2013-07-05 11:22:00,
2013-07-05 07:32:00,68.6,66.5,30.04,NNE,25,0.0,1.0,93,0.00,,,0.10,Wunderground v.1.15,2013-07-05 11:32:00,
2013-07-05 07:42:00,68.7,66.6,30.04,NNE,25,0.0,0.0,93,0.00,,,0.10,Wunderground v.1.15,2013-07-05 11:42:00,
2013-07-05 07:52:00,69.2,67.1,30.04,SW,219,1.0,1.0,93,0.00,,,0.11,Wunderground v.1.15,2013-07-05 11:52:00,
2013-07-05 08:02:00,69.4,67.6,30.04,SSW,211,2.0,2.0,94,0.00,,,0.11,Wunderground v.1.15,2013-07-05 12:02:00,
2013-07-05 08:07:00,69.5,67.7,30.04,SSW,211,1.0,1.0,94,0.00,,,0.11,Wunderground v.1.15,2013-07-05 12:07:00,
2013-07-05 08:17:00,69.5,67.7,30.04,SW,233,1.0,1.0,94,0.00,,,0.11,Wunderground v.1.15,2013-07-05 12:17:00,
2013-07-05 08:27:00,69.6,67.8,30.04,SW,233,0.0,0.0,94,0.00,,,0.11,Wunderground v.1.15,2013-07-05 12:27:00,
2013-07-05 08:37:00,69.8,68.0,30.05,SW,233,0.0,1.0,94,0.00,,,0.11,Wunderground v.1.15,2013-07-05 12:37:00,
2013-07-05 08:42:00,69.8,68.0,30.05,SW,233,0.0,1.0,94,0.00,,,0.11,Wunderground v.1.15,2013-07-05 12:42:00,
2013-07-05 09:07:00,70.1,68.0,30.06,West,271,1.0,2.0,93,0.00,,,0.11,Wunderground v.1.15,2013-07-05 13:07:00,
2013-07-05 09:17:00,70.4,68.3,30.07,West,270,3.0,3.0,93,0.00,,,0.11,Wunderground v.1.15,2013-07-05 13:17:00,
2013-07-05 09:27:00,70.9,68.5,30.07,WNW,287,3.0,3.0,92,0.00,,,0.11,Wunderground v.1.15,2013-07-05 13:27:00,
2013-07-05 09:37:00,71.2,68.4,30.08,WNW,284,3.0,3.0,91,0.00,,,0.11,Wunderground v.1.15,2013-07-05 13:37:00,
2013-07-05 09:47:00,71.3,68.5,30.08,WNW,302,4.0,4.0,91,0.00,,,0.11,Wunderground v.1.15,2013-07-05 13:47:00,
2013-07-05 09:57:00,71.7,68.6,30.08,WNW,294,4.0,5.0,90,0.00,,,0.11,Wunderground v.1.15,2013-07-05 13:57:00,
2013-07-05 10:07:00,71.9,68.8,30.08,WNW,285,5.0,5.0,90,0.00,,,0.11,Wunderground v.1.15,2013-07-05 14:07:00,
2013-07-05 10:12:00,72.0,68.6,30.08,WNW,301,5.0,5.0,89,0.00,,,0.11,Wunderground v.1.15,2013-07-05 14:12:00,
2013-07-05 10:22:00,72.2,69.1,30.07,NW,304,4.0,5.0,90,0.00,,,0.11,Wunderground v.1.15,2013-07-05 14:22:00,
2013-07-05 10:27:00,72.2,68.4,30.07,West,277,4.0,4.0,88,0.00,,,0.11,Wunderground v.1.15,2013-07-05 14:27:00,
2013-07-05 10:37:00,72.3,68.5,30.07,West,277,4.0,4.0,88,0.00,,,0.11,Wunderground v.1.15,2013-07-05 14:37:00,
2013-07-05 10:47:00,72.6,68.5,30.08,West,269,3.0,3.0,87,0.00,,,0.11,Wunderground v.1.15,2013-07-05 14:47:00,
2013-07-05 10:52:00,72.6,68.5,30.08,WSW,252,3.0,4.0,87,0.00,,,0.11,Wunderground v.1.15,2013-07-05 14:52:00,
2013-07-05 10:57:00,72.8,68.4,30.08,WSW,248,3.0,5.0,86,0.00,,,0.11,Wunderground v.1.15,2013-07-05 14:57:00,
2013-07-05 11:07:00,73.0,68.6,30.08,WSW,246,2.0,2.0,86,0.00,,,0.11,Wunderground v.1.15,2013-07-05 15:07:00,
2013-07-05 11:12:00,73.1,68.3,30.08,SSW,199,2.0,2.0,85,0.00,,,0.11,Wunderground v.1.15,2013-07-05 15:12:00,
2013-07-05 11:22:00,73.7,68.6,30.08,NW,321,1.0,2.0,84,0.00,,,0.11,Wunderground v.1.15,2013-07-05 15:22:00,
2013-07-05 11:32:00,74.5,68.6,30.08,North,355,1.0,3.0,82,0.00,,,0.11,Wunderground v.1.15,2013-07-05 15:32:00,
2013-07-05 11:42:00,75.0,68.8,30.08,North,355,0.0,2.0,81,0.00,,,0.11,Wunderground v.1.15,2013-07-05 15:42:00,
2013-07-05 11:47:00,75.1,68.9,30.08,ESE,102,1.0,1.0,81,0.00,,,0.11,Wunderground v.1.15,2013-07-05 15:47:00,
2013-07-05 11:57:00,76.1,69.5,30.08,ESE,117,1.0,1.0,80,0.00,,,0.11,Wunderground v.1.15,2013-07-05 15:57:00,
2013-07-05 12:07:00,76.9,69.9,30.08,East,93,1.0,2.0,79,0.00,,,0.11,Wunderground v.1.15,2013-07-05 16:07:00,
2013-07-05 12:17:00,77.3,70.6,30.08,SE,138,3.0,4.0,80,0.00,,,0.11,Wunderground v.1.15,2013-07-05 16:17:00,
2013-07-05 12:27:00,77.2,70.5,30.08,ENE,78,3.0,3.0,80,0.00,,,0.11,Wunderground v.1.15,2013-07-05 16:27:00,
2013-07-05 12:37:00,77.4,69.6,30.08,ENE,73,2.0,4.0,77,0.00,,,0.11,Wunderground v.1.15,2013-07-05 16:37:00,
2013-07-05 12:42:00,77.0,69.6,30.08,East,99,3.0,4.0,78,0.00,,,0.11,Wunderground v.1.15,2013-07-05 16:42:00,
2013-07-05 12:52:00,77.1,69.7,30.08,ESE,115,2.0,4.0,78,0.00,,,0.11,Wunderground v.1.15,2013-07-05 16:52:00,
2013-07-05 12:57:00,77.3,68.8,30.08,East,94,3.0,3.0,75,0.00,,,0.11,Wunderground v.1.15,2013-07-05 16:57:00,
2013-07-05 13:07:00,77.3,69.5,30.08,East,97,4.0,5.0,77,0.00,,,0.11,Wunderground v.1.15,2013-07-05 17:07:00,
2013-07-05 13:12:00,77.4,70.7,30.07,NNE,30,4.0,5.0,80,0.00,,,0.11,Wunderground v.1.15,2013-07-05 17:12:00,
2013-07-05 13:22:00,77.8,70.4,30.07,ESE,123,3.0,3.0,78,0.00,,,0.11,Wunderground v.1.15,2013-07-05 17:22:00,
2013-07-05 13:32:00,78.2,69.6,30.07,SSE,156,1.0,2.0,75,0.00,,,0.11,Wunderground v.1.15,2013-07-05 17:32:00,
2013-07-05 13:42:00,78.5,71.1,30.07,East,93,2.0,5.0,78,0.00,,,0.11,Wunderground v.1.15,2013-07-05 17:42:00,
2013-07-05 13:47:00,78.6,70.0,30.07,ESE,104,4.0,4.0,75,0.00,,,0.11,Wunderground v.1.15,2013-07-05 17:47:00,
2013-07-05 13:58:00,78.4,69.8,30.07,ENE,74,3.0,3.0,75,0.00,,,0.11,Wunderground v.1.15,2013-07-05 17:58:00,
2013-07-05 14:07:00,79.1,70.9,30.06,ESE,115,2.0,5.0,76,0.00,,,0.11,Wunderground v.1.15,2013-07-05 18:07:00,
2013-07-05 14:17:00,78.8,69.8,30.06,East,86,5.0,7.0,74,0.00,,,0.11,Wunderground v.1.15,2013-07-05 18:17:00,
2013-07-05 14:27:00,78.6,70.0,30.07,ESE,115,4.0,4.0,75,0.00,,,0.11,Wunderground v.1.15,2013-07-05 18:27:00,
2013-07-05 14:37:00,77.7,68.7,30.07,SE,143,3.0,6.0,74,0.00,,,0.11,Wunderground v.1.15,2013-07-05 18:37:00,
2013-07-05 14:42:00,77.2,68.7,30.06,SE,146,3.0,6.0,75,0.00,,,0.11,Wunderground v.1.15,2013-07-05 18:42:00,
2013-07-05 14:52:00,76.9,68.0,30.06,ENE,60,3.0,3.0,74,0.00,,,0.11,Wunderground v.1.15,2013-07-05 18:52:00,
2013-07-05 14:57:00,76.6,68.8,30.06,East,99,4.0,5.0,77,0.00,,,0.11,Wunderground v.1.15,2013-07-05 18:57:00,
2013-07-05 15:07:00,76.7,68.2,30.06,East,91,5.0,5.0,75,0.00,,,0.11,Wunderground v.1.15,2013-07-05 19:07:00,
2013-07-05 15:12:00,77.3,69.1,30.06,SE,129,4.0,5.0,76,0.00,,,0.11,Wunderground v.1.15,2013-07-05 19:12:00,
2013-07-05 15:22:00,76.6,68.5,30.06,ESE,111,4.0,4.0,76,0.00,,,0.11,Wunderground v.1.15,2013-07-05 19:22:00,
2013-07-05 15:27:00,76.5,68.7,30.06,ESE,106,4.0,4.0,77,0.00,,,0.11,Wunderground v.1.15,2013-07-05 19:27:00,
2013-07-05 15:37:00,77.2,69.4,30.06,SE,131,4.0,4.0,77,0.00,,,0.11,Wunderground v.1.15,2013-07-05 19:37:00,
2013-07-05 15:47:00,77.7,68.4,30.06,SE,141,4.0,4.0,73,0.00,,,0.11,Wunderground v.1.15,2013-07-05 19:47:00,
2013-07-05 15:52:00,77.3,68.4,30.06,SE,125,4.0,8.0,74,0.00,,,0.11,Wunderground v.1.15,2013-07-05 19:52:00,
2013-07-05 15:57:00,77.2,69.0,30.06,ENE,75,4.0,4.0,76,0.00,,,0.11,Wunderground v.1.15,2013-07-05 19:57:00,
2013-07-05 16:07:00,77.4,69.2,30.05,SE,124,3.0,3.0,76,0.00,,,0.11,Wunderground v.1.15,2013-07-05 20:07:00,
2013-07-05 16:17:00,78.1,69.1,30.05,SE,139,4.0,6.0,74,0.00,,,0.11,Wunderground v.1.15,2013-07-05 20:17:00,
2013-07-05 16:22:00,78.5,69.5,30.05,South,180,3.0,6.0,74,0.00,,,0.11,Wunderground v.1.15,2013-07-05 20:22:00,
2013-07-05 16:32:00,78.6,68.4,30.04,East,90,4.0,5.0,71,0.00,,,0.11,Wunderground v.1.15,2013-07-05 20:32:00,
2013-07-05 16:37:00,78.5,67.9,30.04,East,96,5.0,6.0,70,0.00,,,0.11,Wunderground v.1.15,2013-07-05 20:37:00,
2013-07-05 16:42:00,78.4,67.4,30.04,ESE,113,5.0,6.0,69,0.00,,,0.11,Wunderground v.1.15,2013-07-05 20:42:00,
2013-07-05 16:52:00,78.4,67.0,30.03,SSE,152,3.0,5.0,68,0.00,,,0.11,Wunderground v.1.15,2013-07-05 20:52:00,
2013-07-05 16:57:00,78.5,67.5,30.03,SSE,157,4.0,5.0,69,0.00,,,0.11,Wunderground v.1.15,2013-07-05 20:57:00,
2013-07-05 17:07:00,78.5,68.7,30.03,SE,130,3.0,3.0,72,0.00,,,0.11,Wunderground v.1.15,2013-07-05 21:07:00,
2013-07-05 17:17:00,78.1,68.7,30.04,East,90,2.0,7.0,73,0.00,,,0.11,Wunderground v.1.15,2013-07-05 21:17:00,
2013-07-05 17:27:00,77.3,69.1,30.04,SE,133,4.0,4.0,76,0.00,,,0.11,Wunderground v.1.15,2013-07-05 21:27:00,
2013-07-05 17:37:00,77.3,68.8,30.04,East,84,3.0,3.0,75,0.00,,,0.11,Wunderground v.1.15,2013-07-05 21:37:00,
2013-07-05 17:47:00,76.6,68.5,30.03,ENE,78,4.0,5.0,76,0.00,,,0.11,Wunderground v.1.15,2013-07-05 21:47:00,
2013-07-05 17:52:00,76.5,68.4,30.04,East,90,4.0,5.0,76,0.00,,,0.11,Wunderground v.1.15,2013-07-05 21:52:00,
2013-07-05 17:57:00,76.5,68.7,30.03,East,98,4.0,7.0,77,0.00,,,0.11,Wunderground v.1.15,2013-07-05 21:57:00,
2013-07-05 18:07:00,77.3,70.3,30.03,East,84,5.0,5.0,79,0.00,,,0.11,Wunderground v.1.15,2013-07-05 22:07:00,
2013-07-05 18:12:00,77.4,69.6,30.03,ENE,77,4.0,5.0,77,0.00,,,0.11,Wunderground v.1.15,2013-07-05 22:12:00,
2013-07-05 18:22:00,77.5,70.5,30.03,ESE,117,4.0,7.0,79,0.00,,,0.11,Wunderground v.1.15,2013-07-05 22:22:00,
2013-07-05 18:27:00,77.4,70.4,30.03,ENE,74,4.0,4.0,79,0.00,,,0.11,Wunderground v.1.15,2013-07-05 22:27:00,
2013-07-05 18:37:00,77.1,70.8,30.02,ENE,59,4.0,4.0,81,0.00,,,0.11,Wunderground v.1.15,2013-07-05 22:37:00,
2013-07-05 18:47:00,77.0,70.4,30.02,East,86,5.0,5.0,80,0.00,,,0.11,Wunderground v.1.15,2013-07-05 22:47:00,
2013-07-05 18:57:00,76.5,70.2,30.02,ESE,123,4.0,4.0,81,0.00,,,0.11,Wunderground v.1.15,2013-07-05 22:57:00,
2013-07-05 19:07:00,76.3,70.4,30.02,ENE,67,4.0,4.0,82,0.00,,,0.11,Wunderground v.1.15,2013-07-05 23:07:00,
2013-07-05 19:17:00,76.1,69.8,30.02,ESE,118,4.0,4.0,81,0.00,,,0.11,Wunderground v.1.15,2013-07-05 23:17:00,
2013-07-05 19:27:00,76.1,69.5,30.02,East,90,2.0,2.0,80,0.00,,,0.11,Wunderground v.1.15,2013-07-05 23:27:00,
2013-07-05 19:37:00,75.7,69.5,30.02,East,86,2.0,3.0,81,0.00,,,0.11,Wunderground v.1.15,2013-07-05 23:37:00,
2013-07-05 19:42:00,75.5,69.6,30.02,East,92,3.0,3.0,82,0.00,,,0.11,Wunderground v.1.15,2013-07-05 23:42:00,
2013-07-05 19:52:00,75.1,69.2,30.02,East,88,3.0,6.0,82,0.00,,,0.11,Wunderground v.1.15,2013-07-05 23:52:00,
2013-07-05 19:57:00,75.0,69.1,30.02,East,84,2.0,2.0,82,0.00,,,0.11,Wunderground v.1.15,2013-07-05 23:57:00,
2013-07-05 20:07:00,75.0,69.5,30.02,East,85,1.0,2.0,83,0.00,,,0.11,Wunderground v.1.15,2013-07-06 00:07:00,
2013-07-05 20:17:00,75.0,69.8,30.02,SE,126,2.0,2.0,84,0.00,,,0.11,Wunderground v.1.15,2013-07-06 00:17:00,
2013-07-05 20:22:00,75.0,69.8,30.02,SE,132,1.0,2.0,84,0.00,,,0.11,Wunderground v.1.15,2013-07-06 00:22:00,
2013-07-05 20:32:00,75.0,69.8,30.03,SE,142,0.0,0.0,84,0.00,,,0.11,Wunderground v.1.15,2013-07-06 00:32:00,
2013-07-05 20:42:00,74.8,69.3,30.03,ESE,119,1.0,2.0,83,0.00,,,0.11,Wunderground v.1.15,2013-07-06 00:42:00,
2013-07-05 20:52:00,74.6,69.1,30.03,SE,137,1.0,1.0,83,0.00,,,0.11,Wunderground v.1.15,2013-07-06 00:52:00,
2013-07-05 20:57:00,74.5,69.3,30.03,ESE,121,1.0,1.0,84,0.00,,,0.11,Wunderground v.1.15,2013-07-06 00:57:00,
2013-07-05 21:07:00,74.3,69.5,30.03,East,83,1.0,2.0,85,0.00,,,0.11,Wunderground v.1.15,2013-07-06 01:07:00,
2013-07-05 21:17:00,74.2,69.7,30.03,ESE,123,2.0,2.0,86,0.00,,,0.11,Wunderground v.1.15,2013-07-06 01:17:00,
2013-07-05 21:27:00,74.1,70.3,30.03,SE,128,1.0,1.0,88,0.00,,,0.11,Wunderground v.1.15,2013-07-06 01:27:00,
2013-07-05 21:37:00,74.0,70.2,30.04,SE,134,0.0,0.0,88,0.00,,,0.11,Wunderground v.1.15,2013-07-06 01:37:00,
2013-07-05 21:42:00,73.9,70.1,30.04,SE,134,0.0,0.0,88,0.00,,,0.11,Wunderground v.1.15,2013-07-06 01:42:00,
2013-07-05 21:52:00,73.7,70.3,30.04,SE,134,0.0,0.0,89,0.00,,,0.11,Wunderground v.1.15,2013-07-06 01:52:00,
2013-07-05 21:57:00,73.6,70.2,30.04,SE,134,0.0,0.0,89,0.00,,,0.11,Wunderground v.1.15,2013-07-06 01:57:00,
2013-07-05 22:07:00,73.3,69.9,30.04,SE,134,0.0,0.0,89,0.00,,,0.11,Wunderground v.1.15,2013-07-06 02:07:00,
2013-07-05 22:12:00,73.2,69.8,30.04,SE,134,0.0,0.0,89,0.00,,,0.11,Wunderground v.1.15,2013-07-06 02:12:00,
2013-07-05 22:22:00,72.9,69.5,30.04,SE,134,0.0,0.0,89,0.00,,,0.11,Wunderground v.1.15,2013-07-06 02:22:00,
2013-07-05 22:27:00,72.5,69.1,30.05,SE,134,0.0,1.0,89,0.00,,,0.11,Wunderground v.1.15,2013-07-06 02:27:00,
2013-07-05 22:37:00,71.7,68.3,30.05,SE,134,1.0,1.0,89,0.00,,,0.11,Wunderground v.1.15,2013-07-06 02:37:00,
2013-07-05 22:47:00,71.4,68.3,30.05,SE,134,0.0,0.0,90,0.00,,,0.11,Wunderground v.1.15,2013-07-06 02:47:00,
2013-07-05 22:52:00,71.4,68.6,30.05,SE,134,0.0,0.0,91,0.00,,,0.11,Wunderground v.1.15,2013-07-06 02:52:00,
2013-07-05 22:57:00,71.4,68.6,30.05,SE,134,0.0,0.0,91,0.00,,,0.11,Wunderground v.1.15,2013-07-06 02:57:00,
2013-07-05 23:07:00,71.7,68.9,30.05,SE,134,1.0,1.0,91,0.00,,,0.11,Wunderground v.1.15,2013-07-06 03:07:00,
2013-07-05 23:17:00,71.9,69.4,30.05,SE,134,1.0,1.0,92,0.00,,,0.11,Wunderground v.1.15,2013-07-06 03:17:00,
2013-07-05 23:22:00,72.1,69.6,30.05,SE,134,1.0,2.0,92,0.00,,,0.11,Wunderground v.1.15,2013-07-06 03:22:00,
2013-07-05 23:32:00,72.1,69.3,30.06,SSE,147,2.0,2.0,91,0.00,,,0.11,Wunderground v.1.15,2013-07-06 03:32:00,
2013-07-05 23:42:00,72.1,69.0,30.06,SSE,147,1.0,1.0,90,0.00,,,0.11,Wunderground v.1.15,2013-07-06 03:42:00,
2013-07-05 23:47:00,72.2,69.1,30.06,SSE,147,0.0,0.0,90,0.00,,,0.11,Wunderground v.1.15,2013-07-06 03:47:00,
2013-07-05 23:58:00,72.0,68.9,30.06,SSE,147,0.0,0.0,90,0.00,,,0.11,Wunderground v.1.15,2013-07-06 03:58:00,